Niceville, Florida
Current Conditions -  °F | °C
As of 4:55 AM on Friday 24 Oct 2014 (Local Time) from KVPS Reporting Station
Broken Clouds Broken Clouds  
Wind Chill: 54°   Ceiling: 19000
Heat Index: 54°   Visibility: 10mi
Dew Point: 46°   Wind: 5mph
Humidity: 74%   Direction: 10°N
Pressure: 30.04"   Gusts: NA
Location:  30.52°N, 86.49°W
Report Text: KVPS 240955Z 01004KT 10SM BKN190 12/08 A3004 RMK AO2A SLP179 T01240078 $
Loading
Personal Weather Stations






























Interactive Weather Map
Tropical Storm Tracking
New forecast layout! Learn more

10-Day Weather Forecast

Advertisements
Track Severe Weather on mobile